logo
Search for airport 
image banner adimage banner adimage banner ad
image banner ad

FAKN - Kruger Mpumalanga International

Located in Nelspruit, South Africa

ICAO - FAKN, IATA - MQP

Data provided by Airmate  

General information

Coordinates: S25°23'30" E31°5'57"
Elevation is 2829 feet MSL.
Magnetic variation is -19° East
View others Airports in Mpumalanga

Operational data

Special qualification required
Current time UTC:
Current local time:
Weather
METAR: FAKN 181100Z AUTO 22001KT //// // ////// 28/14 Q1023
TAF: TAF FAKN 180900Z 1810/1818 VRB03KT CAVOK TX27/1812Z TN19/1818Z
View NOTAMs / SUP AIP / TFR affecting this airport [VIEW]
Communications frequencies: [VIEW]

Runways:

RWY identifierQFULength (ft)Width (ft)SurfaceLDA (ft)
0534°8539133ASPH10171
23214°8539133ASPH9636

Airport contact information

Address: Nelspruit South Africa

Satellite view of FAKN